Terminal Aerodrome Forecast
Issued by NWS

Current Version | Previous Version | Graphics & Text | Print | Product List | Glossary On
Versions: 1 2 3 4 5 6 7 8 9 10 11 12 13 14 15 16 17 18 19 20 21
000
FTUS41 KPBZ 082100 AAB
TAFHLG
TAF AMD
KHLG 082110Z 0821/0918 24012G22KT P6SM BKN040
     FM090000 26008KT P6SM BKN050
     FM090900 24008KT P6SM SCT010 BKN020
     FM091500 26010KT P6SM BKN035=

USA.gov is the U.S. government's official web portal to all federal, state and local government web resources and services.